Time;durP1;ratioP1;P1;durP2;ratioP2;P2;SDS_P1;SDS_P2;PMS_P1;PMS_P2;Temp;Humidity;BMP_temperature;BMP_pressure;BME280_temperature;BME280_humidity;BME280_pressure;Samples;Min_cycle;Max_cycle;Signal;HPM_P1;HPM_P2
2022/07/05 00:01:53;;;;;;;2.43;2.23;;;22.60;58.80;;;-142.21;80.78;112049.66;5114525;28;20565;-77
2022/07/05 00:04:23;;;;;;;2.67;2.10;;;22.50;58.20;;;-142.21;81.23;112049.66;5095899;28;20314;-78
2022/07/05 00:09:31;;;;;;;4.07;1.97;;;22.20;58.80;;;-142.21;83.58;112049.66;5100192;28;20232;-78
2022/07/05 00:11:58;;;;;;;1.80;1.70;;;22.20;59.20;;;-142.21;83.76;112049.66;5113343;28;20239;-78
2022/07/05 00:14:25;;;;;;;2.10;1.90;;;22.20;59.20;;;-142.21;83.14;112049.66;5114016;28;20227;-77
2022/07/05 00:16:54;;;;;;;3.43;2.27;;;22.20;59.20;;;-142.21;82.94;112049.66;5113484;28;20208;-77
2022/07/05 00:19:21;;;;;;;2.37;2.17;;;22.20;59.20;;;-142.21;83.63;112049.66;5112869;28;20204;-78
2022/07/05 00:21:49;;;;;;;4.20;1.83;;;22.20;59.30;;;-142.21;84.14;112049.66;5113407;28;20242;-77
2022/07/05 00:24:16;;;;;;;2.33;1.83;;;22.20;59.20;;;-142.21;84.12;112049.66;5113235;28;20792;-79
2022/07/05 00:26:43;;;;;;;2.30;1.83;;;22.20;59.20;;;-142.21;83.99;112049.66;5113553;28;20254;-78
2022/07/05 00:29:10;;;;;;;2.10;1.87;;;22.20;60.00;;;-142.21;84.35;112049.66;5113309;28;20533;-80
2022/07/05 00:31:37;;;;;;;2.40;1.90;;;22.20;59.40;;;-142.21;84.65;112049.66;5113456;28;20203;-77
2022/07/05 00:34:06;;;;;;;2.10;1.90;;;22.10;59.60;;;-142.21;85.07;112049.66;5113261;28;20295;-79
2022/07/05 00:36:33;;;;;;;2.43;2.23;;;22.10;59.70;;;-142.21;84.83;112049.66;5113047;28;20200;-77
2022/07/05 00:39:00;;;;;;;2.20;2.00;;;22.10;59.80;;;-142.21;85.16;112049.66;5113089;28;20210;-77
2022/07/05 00:41:28;;;;;;;2.13;1.90;;;22.00;60.00;;;-142.21;85.71;112049.66;5113626;28;20252;-77
2022/07/05 00:43:58;;;;;;;2.53;1.80;;;21.90;60.00;;;-142.21;85.42;112049.66;5113513;28;20657;-77
2022/07/05 00:46:25;;;;;;;2.40;2.20;;;21.90;60.40;;;-142.21;85.83;112049.66;5113571;28;20261;-76
2022/07/05 00:48:53;;;;;;;2.20;2.07;;;21.70;60.20;;;-142.21;86.42;112049.66;5113785;28;20228;-78
2022/07/05 00:51:23;;;;;;;2.77;2.00;;;21.70;60.50;;;-142.21;86.97;112049.66;5112997;28;20242;-77
2022/07/05 00:53:51;;;;;;;4.87;2.50;;;21.70;60.80;;;-142.21;86.33;112049.66;5113182;28;20283;-77
2022/07/05 00:56:20;;;;;;;2.00;1.80;;;21.70;60.70;;;-142.21;86.25;112049.66;5112803;28;20242;-79
2022/07/05 00:58:47;;;;;;;5.43;2.60;;;21.60;60.60;;;-142.21;86.53;112049.66;5113280;28;20242;-79
2022/07/05 01:01:16;;;;;;;2.30;2.10;;;21.60;60.80;;;-142.21;87.05;112049.66;5112416;28;20235;-78
2022/07/05 01:03:44;;;;;;;2.10;1.90;;;21.60;60.80;;;-142.21;87.54;112049.66;5113307;28;20229;-77
2022/07/05 01:06:14;;;;;;;3.13;2.10;;;21.60;61.00;;;-142.21;87.35;112049.66;5094748;28;20227;-77
2022/07/05 01:08:45;;;;;;;2.23;1.87;;;21.60;61.30;;;-142.21;87.54;112049.66;5112906;28;20323;-79
2022/07/05 01:11:17;;;;;;;2.30;1.90;;;21.50;61.70;;;-142.21;87.78;112049.66;5112655;28;20198;-78
2022/07/05 01:13:44;;;;;;;2.40;2.20;;;21.40;61.40;;;-142.21;87.84;112049.66;5113252;28;20580;-79
2022/07/05 01:16:13;;;;;;;2.20;2.00;;;21.50;61.40;;;-142.21;88.24;112049.66;5112482;28;20291;-79
2022/07/05 01:18:41;;;;;;;6.90;2.33;;;21.40;61.60;;;-142.21;88.89;112049.66;5112600;28;20676;-77
2022/07/05 01:21:08;;;;;;;2.77;2.20;;;21.30;61.60;;;-142.21;88.67;112049.66;5073570;28;20204;-79
2022/07/05 01:23:37;;;;;;;2.20;2.00;;;21.40;61.70;;;-142.21;88.78;112049.66;5092244;28;20683;-79
2022/07/05 01:26:04;;;;;;;3.70;2.00;;;21.30;61.90;;;-142.21;89.30;112049.66;5091897;28;20310;-80
2022/07/05 01:28:32;;;;;;;2.57;1.97;;;21.20;62.20;;;-142.21;90.26;112049.66;5092134;28;20208;-79
2022/07/05 01:31:02;;;;;;;2.97;2.30;;;21.10;62.80;;;-142.21;91.17;112049.66;5092711;28;20696;-78
2022/07/05 01:33:30;;;;;;;2.37;2.10;;;21.00;63.20;;;-142.21;91.56;112049.66;5091779;28;20208;-79
2022/07/05 01:35:58;;;;;;;2.20;2.00;;;20.90;63.30;;;-142.21;91.56;112049.66;5092544;28;20235;-78
2022/07/05 01:38:26;;;;;;;2.20;2.00;;;20.90;63.40;;;-142.21;91.51;112049.66;5091517;28;20740;-78
2022/07/05 01:40:55;;;;;;;3.10;2.20;;;21.00;63.20;;;-142.21;91.26;112049.66;5092497;28;20235;-78
2022/07/05 01:43:24;;;;;;;2.63;2.10;;;20.90;63.00;;;-142.21;91.58;112049.66;5092012;28;20219;-78
2022/07/05 01:45:52;;;;;;;2.67;1.87;;;20.90;63.00;;;-142.21;91.29;112049.66;5092110;28;20718;-78
2022/07/05 01:48:22;;;;;;;1.87;1.77;;;20.90;63.00;;;-142.21;91.28;112049.66;5091508;28;20329;-78
2022/07/05 01:50:54;;;;;;;2.40;2.10;;;20.90;63.10;;;-142.21;92.01;112049.66;5074594;28;20321;-77
2022/07/05 01:53:28;;;;;;;2.67;2.30;;;20.90;63.80;;;-142.21;92.16;112049.66;5091898;28;20239;-78
2022/07/05 01:55:57;;;;;;;2.33;2.13;;;20.90;64.00;;;-142.21;92.54;112049.66;5092381;28;20279;-78
2022/07/05 01:58:26;;;;;;;3.80;2.30;;;20.80;64.20;;;-142.21;92.95;112049.66;5091822;28;20246;-78
2022/07/05 02:00:57;;;;;;;2.90;1.80;;;20.70;64.30;;;-142.21;93.28;112049.66;5091883;28;20295;-79
2022/07/05 02:03:24;;;;;;;2.80;2.53;;;20.70;64.70;;;-142.21;93.50;112049.66;5091646;28;20235;-78
2022/07/05 02:05:53;;;;;;;2.20;2.00;;;20.60;64.70;;;-142.21;93.86;112049.66;5099248;28;20310;-79
2022/07/05 02:08:21;;;;;;;3.37;2.30;;;20.60;64.80;;;-142.21;93.62;112049.66;5111529;28;20204;-79
2022/07/05 02:10:48;;;;;;;4.67;2.30;;;20.70;65.10;;;-142.21;93.45;112049.66;5112190;28;20222;-79
2022/07/05 02:13:17;;;;;;;2.37;2.17;;;20.50;65.00;;;-142.21;94.10;112049.66;5091736;28;20228;-78
2022/07/05 02:15:44;;;;;;;3.60;2.10;;;20.40;65.10;;;-142.21;94.12;112049.66;5091876;28;20201;-77
2022/07/05 02:18:15;;;;;;;3.43;2.40;;;20.50;65.00;;;-142.21;94.04;112049.66;5091641;28;20722;-76
2022/07/05 02:20:43;;;;;;;2.83;2.20;;;20.50;65.10;;;-142.21;93.69;112049.66;5091864;28;20189;-78
2022/07/05 02:23:10;;;;;;;2.63;2.23;;;20.50;64.70;;;-142.21;93.92;112049.66;5091614;28;20250;-78
2022/07/05 02:25:37;;;;;;;3.10;2.40;;;20.50;64.80;;;-142.21;93.50;112049.66;5091707;28;20315;-79
2022/07/05 02:28:06;;;;;;;2.27;2.07;;;20.50;64.80;;;-142.21;93.96;112049.66;5091904;28;20295;-78
2022/07/05 02:30:34;;;;;;;2.37;2.10;;;20.50;65.00;;;-142.21;93.69;112049.66;5091930;28;20204;-78
2022/07/05 02:33:01;;;;;;;2.43;2.23;;;20.50;64.90;;;-142.21;93.66;112049.66;5091928;28;20201;-78
2022/07/05 02:35:28;;;;;;;2.87;2.50;;;20.50;64.70;;;-142.21;93.38;112049.66;5091503;28;20295;-78
2022/07/05 02:37:56;;;;;;;2.83;2.30;;;20.50;64.90;;;-142.21;93.67;112049.66;5091983;28;20219;-79
2022/07/05 02:40:23;;;;;;;3.87;2.37;;;20.50;65.00;;;-142.21;94.03;112049.66;5091064;28;20200;-78
2022/07/05 02:42:50;;;;;;;2.47;2.27;;;20.50;65.10;;;-142.21;94.34;112049.66;5077147;28;20207;-78
2022/07/05 02:45:17;;;;;;;2.47;2.27;;;20.40;66.00;;;-142.21;94.61;112049.66;5094372;28;20268;-79
2022/07/05 02:47:46;;;;;;;3.57;2.27;;;20.30;65.40;;;-142.21;94.82;112049.66;5095459;28;20646;-78
2022/07/05 02:50:13;;;;;;;2.47;2.17;;;20.30;65.40;;;-142.21;94.45;112049.66;5094623;28;20235;-79
2022/07/05 02:52:40;;;;;;;4.07;2.00;;;20.30;65.40;;;-142.21;94.40;112049.66;5095255;28;20292;-77
2022/07/05 02:55:09;;;;;;;3.27;2.43;;;20.20;65.50;;;-142.21;94.45;112049.66;5094520;28;20354;-78
2022/07/05 02:57:38;;;;;;;2.60;1.93;;;20.20;65.50;;;-142.21;94.32;112049.66;5095353;28;20292;-78
2022/07/05 03:00:08;;;;;;;2.87;1.90;;;20.20;65.50;;;-142.21;93.92;112049.66;5094853;28;20291;-77
2022/07/05 03:02:35;;;;;;;2.80;1.97;;;20.20;65.30;;;-142.21;94.34;112049.66;5095223;28;20208;-77
2022/07/05 03:05:04;;;;;;;2.90;2.50;;;20.20;65.30;;;-142.21;94.01;112049.66;5094973;28;20208;-78
2022/07/05 03:07:31;;;;;;;3.40;2.03;;;20.20;65.30;;;-142.21;94.42;112049.66;5094993;28;20697;-79
2022/07/05 03:09:58;;;;;;;2.00;1.90;;;20.20;65.30;;;-142.21;94.56;112049.66;5094630;28;20240;-78
2022/07/05 03:12:26;;;;;;;2.70;2.20;;;20.10;65.20;;;-142.21;94.12;112049.66;5094205;28;21137;-77
2022/07/05 03:14:53;;;;;;;4.13;2.10;;;20.10;65.20;;;-142.21;94.64;112049.66;5094398;28;20248;-78
2022/07/05 03:17:20;;;;;;;2.30;2.10;;;20.10;65.40;;;-142.21;94.75;112049.66;5094287;28;20251;-77
2022/07/05 03:19:47;;;;;;;2.00;1.80;;;20.00;65.30;;;-142.21;94.70;112049.66;5094808;28;20201;-78
2022/07/05 03:22:16;;;;;;;3.00;2.50;;;20.10;65.40;;;-142.21;95.06;112049.66;5093925;28;20250;-78
2022/07/05 03:24:43;;;;;;;3.87;2.50;;;20.00;66.30;;;-142.21;95.07;112049.66;5094698;28;20262;-78
2022/07/05 03:27:10;;;;;;;2.30;2.10;;;20.00;65.40;;;-142.21;94.28;112049.66;5094150;28;20231;-78
2022/07/05 03:29:37;;;;;;;2.87;2.30;;;20.00;65.30;;;-142.21;94.05;112049.66;5094056;28;20200;-78
2022/07/05 03:32:05;;;;;;;2.93;2.30;;;20.00;65.30;;;-142.21;94.16;112049.66;5094334;28;20291;-77
2022/07/05 03:34:33;;;;;;;2.10;1.90;;;19.90;65.40;;;-142.21;94.59;112049.66;5080060;28;20196;-78
2022/07/05 03:37:00;;;;;;;2.80;2.30;;;19.90;65.30;;;-142.21;95.13;112049.66;5114846;28;20231;-78
2022/07/05 03:39:28;;;;;;;2.37;2.17;;;19.90;65.40;;;-142.21;96.12;112049.66;5113972;28;20908;-78
2022/07/05 03:41:56;;;;;;;2.50;2.30;;;19.70;66.50;;;-142.21;96.30;112049.66;5114494;28;20212;-77
2022/07/05 03:44:23;;;;;;;3.60;2.60;;;19.70;66.60;;;-142.21;96.56;112049.66;5113627;28;20206;-78
2022/07/05 03:46:50;;;;;;;2.50;2.27;;;19.70;66.50;;;-142.21;97.00;112049.66;5114257;28;20314;-77
2022/07/05 03:49:17;;;;;;;3.50;2.50;;;19.70;66.30;;;-142.21;97.29;112049.66;5113837;28;20769;-78
2022/07/05 03:51:45;;;;;;;2.30;2.10;;;19.70;66.70;;;-142.21;96.74;112049.66;5114217;28;20858;-78
2022/07/05 03:54:12;;;;;;;3.70;2.40;;;19.60;66.50;;;-142.21;96.48;112049.66;5113698;28;20249;-77
2022/07/05 03:56:41;;;;;;;3.33;2.10;;;19.60;66.90;;;-142.21;97.05;112049.66;5114517;28;20567;-78
2022/07/05 03:59:08;;;;;;;16.17;3.53;;;19.50;67.00;;;-142.21;97.29;112049.66;5113905;28;20666;-78
2022/07/05 04:01:36;;;;;;;3.80;2.37;;;19.50;67.10;;;-142.21;97.34;112049.66;5114351;28;20707;-78
2022/07/05 04:04:03;;;;;;;2.20;2.00;;;19.60;67.90;;;-142.21;97.02;112049.66;5114095;28;20250;-77
2022/07/05 04:06:30;;;;;;;5.23;2.10;;;19.60;67.00;;;-142.21;96.84;112049.66;5113518;28;20227;-77
2022/07/05 04:08:57;;;;;;;3.43;2.30;;;19.60;66.60;;;-142.21;96.96;112049.66;5114076;28;20839;-77
2022/07/05 04:11:24;;;;;;;3.40;2.30;;;19.60;66.50;;;-142.21;97.12;112049.66;5113352;28;20239;-78
2022/07/05 04:13:53;;;;;;;2.43;2.20;;;19.60;66.80;;;-142.21;97.56;112049.66;5113770;28;20619;-77
2022/07/05 04:16:20;;;;;;;3.30;2.10;;;19.50;67.20;;;-142.21;97.60;112049.66;5113308;28;20238;-78
2022/07/05 04:18:47;;;;;;;2.67;2.17;;;19.50;67.20;;;-142.21;97.31;112049.66;5113798;28;20214;-77
2022/07/05 04:21:14;;;;;;;4.30;2.37;;;19.50;67.00;;;-142.21;97.53;112049.66;5113373;28;20481;-77
2022/07/05 04:23:41;;;;;;;3.47;2.40;;;19.50;67.10;;;-142.21;97.38;112049.66;5113760;28;20239;-78
2022/07/05 04:26:09;;;;;;;4.63;2.33;;;19.50;67.20;;;-142.21;98.02;112049.66;5113238;28;20227;-77
2022/07/05 04:28:36;;;;;;;2.40;2.20;;;19.50;67.50;;;-142.21;98.47;112049.66;5113700;28;20445;-78
2022/07/05 04:31:05;;;;;;;2.57;2.30;;;19.60;67.80;;;-142.21;98.05;112049.66;5113836;28;20246;-78
2022/07/05 04:33:32;;;;;;;3.03;2.50;;;19.60;67.60;;;-142.21;97.66;112049.66;5113210;28;20719;-78
2022/07/05 04:35:59;;;;;;;5.90;2.37;;;19.70;67.70;;;-142.21;98.13;112049.66;5113277;28;20235;-78
2022/07/05 04:38:26;;;;;;;7.67;3.73;;;19.60;68.30;;;-142.21;99.17;112049.66;5112802;28;20728;-77
2022/07/05 04:40:53;;;;;;;2.57;2.37;;;19.60;68.60;;;-142.21;99.35;112049.66;5113610;28;20235;-78
2022/07/05 04:43:21;;;;;;;3.33;2.70;;;19.50;69.20;;;-142.21;99.10;112049.66;5112855;28;20204;-78
2022/07/05 04:45:49;;;;;;;6.90;3.10;;;19.50;69.00;;;-142.21;99.40;112049.66;5113191;28;20259;-77
2022/07/05 04:48:17;;;;;;;5.03;3.07;;;19.60;68.80;;;-142.21;98.72;112049.66;5113085;28;20310;-77
2022/07/05 04:50:44;;;;;;;3.40;2.60;;;19.70;68.60;;;-142.21;97.74;112049.66;5113424;28;20246;-77
2022/07/05 04:53:14;;;;;;;5.33;3.33;;;19.80;67.80;;;-142.21;98.29;112049.66;5112649;28;20239;-78
2022/07/05 04:55:41;;;;;;;4.43;2.50;;;19.90;67.80;;;-142.21;96.93;112049.66;5077292;28;20283;-77
2022/07/05 04:58:08;;;;;;;2.77;2.43;;;20.00;67.20;;;-142.21;96.52;112049.66;5113030;28;20208;-77
2022/07/05 05:00:36;;;;;;;2.83;2.00;;;20.10;67.00;;;-142.21;96.45;112049.66;5112750;28;20231;-77
2022/07/05 05:03:03;;;;;;;2.13;1.93;;;20.20;67.00;;;-142.21;95.72;112049.66;5113144;28;20250;-77
2022/07/05 05:05:31;;;;;;;2.43;2.13;;;20.20;67.40;;;-142.21;94.78;112049.66;5112106;28;20214;-78
2022/07/05 05:07:58;;;;;;;3.53;2.30;;;20.30;66.00;;;-142.21;92.44;112049.66;5112862;28;20298;-77
2022/07/05 05:10:26;;;;;;;3.97;2.13;;;20.40;64.90;;;-142.21;92.68;112049.66;5112051;28;20323;-78
2022/07/05 05:12:53;;;;;;;3.93;2.40;;;20.50;64.80;;;-142.21;93.26;112049.66;5113062;28;20295;-79
2022/07/05 05:15:21;;;;;;;2.37;2.17;;;20.60;65.00;;;-142.21;92.97;112049.66;5112413;28;20219;-79
2022/07/05 05:17:48;;;;;;;2.83;2.20;;;20.70;64.90;;;-142.21;93.28;112049.66;5112652;28;20682;-78
2022/07/05 05:20:19;;;;;;;3.40;2.27;;;20.70;64.90;;;-142.21;92.54;112049.66;5112522;28;20553;-79
2022/07/05 05:22:48;;;;;;;2.67;1.97;;;20.80;64.70;;;-142.21;91.97;112049.66;5112815;28;20275;-77
2022/07/05 05:25:16;;;;;;;3.13;2.50;;;20.90;65.10;;;-142.21;91.98;112049.66;5111828;28;20203;-78
2022/07/05 05:27:44;;;;;;;3.13;2.40;;;21.00;64.40;;;-142.21;91.72;112049.66;5094922;28;20227;-78
2022/07/05 05:30:14;;;;;;;4.27;2.20;;;21.10;64.30;;;-142.21;91.18;112049.66;5112818;28;20231;-78
2022/07/05 05:32:41;;;;;;;4.03;2.33;;;21.20;64.00;;;-142.21;90.71;112049.66;5112472;28;20203;-78
2022/07/05 05:35:09;;;;;;;3.67;2.10;;;21.20;63.50;;;-142.21;90.36;112049.66;5112902;28;20289;-79
2022/07/05 05:37:53;;;;;;;2.83;2.40;;;21.30;63.50;;;-142.21;90.05;112049.66;5112367;28;20286;-79
2022/07/05 05:40:21;;;;;;;3.67;2.23;;;21.40;63.50;;;-142.21;89.65;112049.66;5112311;28;20585;-78
2022/07/05 05:42:48;;;;;;;3.17;2.27;;;21.50;63.10;;;-142.21;89.20;112049.66;5112593;28;20243;-79
2022/07/05 05:45:17;;;;;;;2.23;2.03;;;21.60;62.70;;;-142.21;88.96;112049.66;5112162;28;20276;-77
2022/07/05 05:47:47;;;;;;;2.53;2.07;;;21.70;62.50;;;-142.21;88.73;112049.66;5112633;28;20310;-77
2022/07/05 05:50:14;;;;;;;4.33;2.50;;;21.80;62.40;;;-142.21;83.38;112049.66;5102009;28;20203;-78
2022/07/05 05:52:42;;;;;;;2.27;1.80;;;21.80;59.90;;;-142.21;80.50;112049.66;5112661;28;20294;-79
2022/07/05 05:55:10;;;;;;;3.03;2.17;;;21.90;58.90;;;-142.21;85.02;112049.66;5111950;28;20212;-78
2022/07/05 05:57:37;;;;;;;2.63;2.23;;;22.00;60.00;;;-142.21;85.02;112049.66;5112403;28;20242;-79
2022/07/05 06:00:07;;;;;;;2.03;1.70;;;22.10;60.10;;;-142.21;83.92;112049.66;5112290;28;20230;-79
2022/07/05 06:02:50;;;;;;;3.17;1.97;;;22.20;59.50;;;-142.21;74.65;112049.66;5112109;28;20235;-80
2022/07/05 06:05:18;;;;;;;6.33;1.90;;;22.20;57.30;;;-142.21;75.93;112049.66;5029132;28;20199;-79
2022/07/05 06:07:49;;;;;;;4.23;1.63;;;22.30;57.20;;;-142.21;76.41;112049.66;5030037;28;20313;-78
2022/07/05 06:10:23;;;;;;;2.33;1.57;;;22.40;57.20;;;-142.21;75.67;112049.66;5028831;28;20261;-78
2022/07/05 06:12:51;;;;;;;2.57;2.00;;;22.50;56.90;;;-142.21;69.89;112049.66;5029734;28;20195;-77
2022/07/05 06:15:19;;;;;;;1.33;1.23;;;22.50;55.30;;;-142.21;72.25;112049.66;5030343;28;20288;-77
2022/07/05 06:17:47;;;;;;;2.37;1.80;;;22.50;55.70;;;-142.21;71.58;112049.66;5033279;28;20202;-78
2022/07/05 06:20:17;;;;;;;4.07;1.67;;;22.70;55.40;;;-142.21;69.09;112049.66;5033236;28;20202;-80
2022/07/05 06:22:49;;;;;;;1.27;1.20;;;22.80;54.80;;;-142.21;68.12;112049.66;5033282;28;20206;-78
2022/07/05 06:25:18;;;;;;;2.03;1.60;;;22.80;54.30;;;-142.21;64.19;112049.66;5033284;28;20277;-77
2022/07/05 06:27:49;;;;;;;1.77;1.53;;;22.90;54.10;;;-142.21;67.99;112049.66;5033108;28;20767;-78
2022/07/05 06:30:20;;;;;;;2.03;1.70;;;22.90;54.40;;;-142.21;65.52;112049.66;5032793;28;20202;-78
2022/07/05 06:32:50;;;;;;;2.83;1.60;;;23.00;53.90;;;-142.21;65.99;112049.66;5013915;28;20203;-77
2022/07/05 06:35:18;;;;;;;1.97;1.77;;;23.10;53.90;;;-142.21;62.78;112049.66;5013303;28;20238;-77
2022/07/05 06:37:48;;;;;;;4.23;1.80;;;23.10;53.30;;;-142.21;64.08;112049.66;5013237;28;20204;-80
2022/07/05 06:40:21;;;;;;;2.00;1.40;;;23.20;53.80;;;-142.21;63.08;112049.66;5013282;28;20207;-77
2022/07/05 06:42:49;;;;;;;3.23;1.67;;;23.30;53.20;;;-142.21;63.27;112049.66;5064404;28;20680;-79
2022/07/05 06:45:17;;;;;;;3.50;1.90;;;23.40;53.30;;;-142.21;61.24;112049.66;5095441;28;20243;-80
2022/07/05 06:47:45;;;;;;;4.57;2.00;;;23.50;52.80;;;-142.21;59.90;112049.66;5077441;28;20270;-79
2022/07/05 06:50:12;;;;;;;1.60;1.50;;;23.40;52.50;;;-142.21;58.08;112049.66;5095243;28;20200;-79
2022/07/05 06:52:40;;;;;;;3.97;1.87;;;23.40;52.20;;;-142.21;60.43;112049.66;5094245;28;20244;-79
2022/07/05 06:55:08;;;;;;;2.10;1.83;;;23.50;52.50;;;-142.21;58.42;112049.66;5095246;28;20208;-80
2022/07/05 06:57:37;;;;;;;3.43;1.80;;;23.60;51.90;;;-142.21;59.49;112049.66;5094264;28;20196;-78
2022/07/05 07:00:07;;;;;;;2.77;1.50;;;23.70;52.20;;;-142.21;57.65;112049.66;5095004;28;20210;-80
2022/07/05 07:02:35;;;;;;;3.33;1.70;;;23.90;52.00;;;-142.21;57.27;112049.66;5114182;28;20238;-81
2022/07/05 07:05:02;;;;;;;3.03;2.10;;;23.90;51.90;;;-142.21;57.48;112049.66;5115264;28;20660;-78
2022/07/05 07:10:16;;;;;;;3.47;2.03;;;24.00;51.50;;;-142.21;56.54;112049.66;5115122;28;20304;-79
2022/07/05 07:12:45;;;;;;;1.83;1.70;;;24.10;51.40;;;-142.21;55.78;112049.66;5096453;28;20268;-80
2022/07/05 07:15:12;;;;;;;2.20;1.80;;;24.10;51.30;;;-142.21;55.79;112049.66;5115210;28;20276;-80
2022/07/05 07:17:39;;;;;;;3.17;2.13;;;24.10;51.20;;;-142.21;54.74;112049.66;5114538;28;21102;-79
2022/07/05 07:20:08;;;;;;;2.60;1.73;;;24.00;50.90;;;-142.21;55.97;112049.66;5115034;28;20201;-80
2022/07/05 07:22:35;;;;;;;2.93;1.87;;;24.00;51.50;;;-142.21;57.92;112049.66;5114086;28;20685;-79
2022/07/05 07:25:02;;;;;;;1.60;1.50;;;24.20;52.00;;;-142.21;58.55;112049.66;5115031;28;20257;-80
2022/07/05 07:27:30;;;;;;;4.17;1.63;;;24.30;52.10;;;-142.21;61.55;112049.66;5113515;28;20713;-81
2022/07/05 07:29:58;;;;;;;1.63;1.53;;;24.50;52.70;;;-142.21;54.91;112049.66;5114999;28;20203;-80
2022/07/05 07:32:26;;;;;;;2.37;1.97;;;24.50;51.20;;;-142.21;51.99;112049.66;5114029;28;20203;-80
2022/07/05 07:34:53;;;;;;;3.07;2.03;;;24.60;50.10;;;-142.21;52.16;112049.66;5115143;28;20291;-80
2022/07/05 07:37:20;;;;;;;2.80;1.80;;;24.50;50.10;;;-142.21;51.75;112049.66;5114531;28;20229;-79
2022/07/05 07:39:47;;;;;;;9.80;2.10;;;24.70;50.00;;;-142.21;49.31;112049.66;5114680;28;20214;-79
2022/07/05 07:42:14;;;;;;;2.43;1.90;;;24.70;48.90;;;-142.21;50.67;112049.66;5114547;28;20203;-80
2022/07/05 07:44:42;;;;;;;10.70;2.33;;;24.80;49.70;;;-142.21;52.69;112049.66;5113805;28;20203;-80
2022/07/05 07:47:10;;;;;;;2.83;1.57;;;24.90;50.10;;;-142.21;54.52;112049.66;5114598;28;20331;-79
2022/07/05 07:49:37;;;;;;;1.90;1.80;;;25.20;50.70;;;-142.21;54.47;112049.66;5113831;28;20752;-78
2022/07/05 07:52:05;;;;;;;2.17;1.60;;;25.40;50.20;;;-142.21;51.45;112049.66;5061724;28;20249;-79
2022/07/05 07:54:32;;;;;;;3.33;1.50;;;25.50;49.40;;;-142.21;51.19;112049.66;5113932;28;20191;-79
2022/07/05 07:57:01;;;;;;;2.17;1.13;;;25.60;49.10;;;-142.21;48.67;112049.66;5114510;28;20203;-79
2022/07/05 07:59:29;;;;;;;1.73;1.57;;;25.60;48.20;;;-142.21;48.92;112049.66;5113689;28;20208;-78
2022/07/05 08:01:56;;;;;;;2.30;1.50;;;25.60;48.30;;;-142.21;50.01;112049.66;5096276;28;20256;-79
2022/07/05 08:04:24;;;;;;;1.57;1.33;;;25.80;48.60;;;-142.21;49.15;112049.66;5113572;28;20204;-79
2022/07/05 08:06:52;;;;;;;3.03;1.40;;;25.90;48.20;;;-142.21;52.93;112049.66;5114139;28;20250;-80
2022/07/05 08:09:19;;;;;;;2.37;1.40;;;26.00;49.40;;;-142.21;48.38;112049.66;5114000;28;20227;-81
2022/07/05 08:11:48;;;;;;;1.70;1.60;;;26.10;48.10;;;-142.21;48.20;112049.66;5113279;28;20208;-78
2022/07/05 08:14:16;;;;;;;2.77;1.40;;;26.10;47.80;;;-142.21;52.03;112049.66;5113936;28;20196;-78
2022/07/05 08:16:44;;;;;;;1.53;1.20;;;26.20;49.00;;;-142.21;47.57;112049.66;5113534;28;20560;-80
2022/07/05 08:21:58;;;;;;;1.53;1.20;;;26.30;48.20;;;-142.21;49.12;112049.66;5113853;28;20643;-78
2022/07/05 08:24:25;;;;;;;2.93;1.50;;;26.40;48.00;;;-142.21;47.25;112049.66;5113389;28;20235;-78
2022/07/05 08:26:52;;;;;;;2.37;1.50;;;26.50;47.00;;;-142.21;47.46;112049.66;5114094;28;20224;-80
2022/07/05 08:29:20;;;;;;;2.20;1.50;;;26.60;47.20;;;-142.21;47.23;112049.66;5113928;28;20303;-79
2022/07/05 08:31:50;;;;;;;1.60;1.50;;;26.60;47.30;;;-142.21;44.94;112049.66;5112986;28;20392;-79
2022/07/05 08:34:18;;;;;;;1.77;1.57;;;26.60;46.30;;;-142.21;45.93;112049.66;5114012;28;20207;-79
2022/07/05 08:36:46;;;;;;;2.60;1.30;;;26.60;46.70;;;-142.21;45.25;112049.66;5113125;28;20239;-79
2022/07/05 08:39:16;;;;;;;2.63;1.70;;;26.70;46.50;;;-142.21;45.20;112049.66;5112485;28;20252;-79
2022/07/05 08:41:48;;;;;;;2.77;1.53;;;26.80;46.50;;;-142.21;46.07;112049.66;5113027;28;20260;-81
2022/07/05 08:44:18;;;;;;;1.50;1.40;;;26.90;47.00;;;-142.21;48.24;112049.66;5113846;28;20291;-79
2022/07/05 08:46:48;;;;;;;1.60;1.23;;;27.00;48.30;;;-142.21;47.10;112049.66;5112956;28;20268;-77
2022/07/05 08:49:19;;;;;;;2.60;1.43;;;27.10;47.10;;;-142.21;45.38;112049.66;5113228;28;20224;-79
2022/07/05 08:51:47;;;;;;;1.80;1.30;;;27.20;46.30;;;-142.21;43.05;112049.66;5112596;28;20218;-79
2022/07/05 08:54:17;;;;;;;2.03;1.10;;;27.30;45.10;;;-142.21;42.91;112049.66;5113229;28;20249;-79
2022/07/05 08:56:45;;;;;;;2.93;1.53;;;27.30;45.00;;;-142.21;43.77;112049.66;5112812;28;20199;-79
2022/07/05 08:59:13;;;;;;;1.37;1.27;;;27.30;45.40;;;-142.21;45.05;112049.66;5113091;28;20716;-79
2022/07/05 09:01:41;;;;;;;1.07;1.03;;;27.40;46.00;;;-142.21;45.74;112049.66;5113039;28;20245;-79
2022/07/05 09:04:10;;;;;;;2.10;1.20;;;27.50;46.00;;;-142.21;45.93;112049.66;5112983;28;20204;-78
2022/07/05 09:06:40;;;;;;;1.43;1.30;;;27.70;46.40;;;-142.21;46.77;112049.66;5112521;28;20557;-80
2022/07/05 09:09:08;;;;;;;1.17;1.13;;;27.80;46.40;;;-142.21;45.56;112049.66;5113184;28;20699;-78
2022/07/05 09:11:40;;;;;;;1.47;1.27;;;28.00;46.30;;;-142.21;43.91;112049.66;5112635;28;20197;-78
2022/07/05 09:14:20;;;;;;;1.37;1.13;;;28.10;45.70;;;-142.21;44.72;112049.66;5112935;28;20185;-79
2022/07/05 09:16:47;;;;;;;1.47;1.33;;;28.10;45.30;;;-142.21;44.91;112049.66;5112818;28;20276;-79
2022/07/05 09:19:15;;;;;;;3.03;1.40;;;28.20;45.50;;;-142.21;44.46;112049.66;5113170;28;20204;-80
2022/07/05 09:21:42;;;;;;;1.87;1.33;;;28.40;45.10;;;-142.21;44.16;112049.66;5112047;28;20296;-80
2022/07/05 09:24:13;;;;;;;1.80;1.47;;;28.50;44.90;;;-142.21;43.28;112049.66;5113204;28;20228;-79
2022/07/05 09:26:47;;;;;;;1.60;1.23;;;28.50;44.40;;;-142.21;42.30;112049.66;5112467;28;20205;-79
2022/07/05 09:29:19;;;;;;;1.40;1.30;;;28.60;44.00;;;-142.21;43.46;112049.66;5113090;28;20214;-79
2022/07/05 09:31:49;;;;;;;1.47;1.10;;;28.70;44.50;;;-142.21;44.06;112049.66;5112217;28;20285;-78
2022/07/05 09:34:19;;;;;;;3.83;1.20;;;28.80;44.70;;;-142.21;41.78;112049.66;5112855;28;20194;-79
2022/07/05 09:36:55;;;;;;;1.30;1.20;;;28.90;44.50;;;-142.21;41.25;112049.66;5112018;28;21154;-79
2022/07/05 09:39:38;;;;;;;2.60;1.60;;;29.00;43.10;;;-142.21;39.94;112049.66;5112720;28;20189;-79
2022/07/05 09:42:20;;;;;;;1.80;1.20;;;29.00;41.80;;;-142.21;37.94;112049.66;5112742;28;20590;-79
2022/07/05 09:44:51;;;;;;;1.73;1.20;;;29.00;40.70;;;-142.21;41.17;112049.66;5092371;28;20192;-78
2022/07/05 09:47:20;;;;;;;0.90;0.90;;;29.00;43.70;;;-142.21;37.54;112049.66;5092091;28;20322;-79
2022/07/05 09:49:49;;;;;;;2.50;0.90;;;29.10;41.30;;;-142.21;37.66;112049.66;5091921;28;20218;-80
2022/07/05 09:52:30;;;;;;;2.97;1.50;;;29.20;40.90;;;-142.21;37.76;112049.66;5096743;28;20202;-81
2022/07/05 09:55:06;;;;;;;1.33;0.90;;;29.20;40.20;;;-142.21;36.33;112049.66;5096142;28;20298;-79
2022/07/05 09:57:36;;;;;;;1.40;1.20;;;29.30;39.50;;;-142.21;37.49;112049.66;5095871;28;20202;-79
2022/07/05 10:00:08;;;;;;;1.07;1.00;;;29.30;40.40;;;-142.21;38.52;112049.66;5096492;28;20289;-80
2022/07/05 10:02:40;;;;;;;2.07;0.90;;;29.40;40.90;;;-142.21;37.77;112049.66;5096250;28;20191;-80
2022/07/05 10:05:13;;;;;;;1.83;1.00;;;29.50;40.60;;;-142.21;37.33;112049.66;5116823;28;20236;-79
2022/07/05 10:07:47;;;;;;;1.20;1.10;;;29.60;40.10;;;-142.21;37.44;112049.66;5116160;28;20271;-79
2022/07/05 10:10:17;;;;;;;1.27;0.93;;;29.70;39.90;;;-142.21;37.58;112049.66;5116306;28;20605;-79
2022/07/05 10:12:49;;;;;;;1.67;1.10;;;29.80;40.60;;;-142.21;37.46;112049.66;5115974;28;20206;-78
2022/07/05 10:15:21;;;;;;;1.73;1.30;;;29.90;40.10;;;-142.21;36.53;112049.66;5116096;28;20231;-79